.
WxDataArchive / Data Records for 2014-08-17
2014-08-16 August 2014 2014-08-18

Data Records for Sunday, 17 August 2014

Time	Temp	Chill	HIndex	Humid	Dewpt	 Wind 	HiWind	WindDir	Rain 	Barom
-----	----	-----	------	-----	-----	------	------	-------	-----	-----
00:00	71.8	71.8	71.8	88	68.0	0	1	0	0.00	29.915 
00:05	71.8	71.8	71.8	88	68.0	0	1	0	0.00	29.915 
00:10	71.8	71.8	71.8	87	67.7	0	1	0	0.00	29.915 
00:15	71.8	71.8	71.8	87	67.7	0	1	0	0.00	29.917 
00:20	71.8	71.8	71.8	87	67.7	0	0	---	0.00	29.917 
00:25	71.8	71.8	71.8	87	67.7	0	0	---	0.00	29.917 
00:30	71.8	71.8	71.8	87	67.7	0	1	0	0.00	29.917 
00:35	71.8	71.8	71.8	87	67.7	0	1	0	0.00	29.917 
00:40	71.8	71.8	71.8	87	67.7	0	1	0	0.00	29.917 
00:45	71.8	71.8	71.8	87	67.7	0	1	0	0.00	29.917 
00:50	71.8	71.8	71.8	87	67.7	0	1	0	0.00	29.917 
00:55	71.6	71.6	71.6	87	67.5	0	0	---	0.00	29.917 
01:00	71.6	71.6	71.6	87	67.5	0	0	---	0.00	29.918 
01:05	71.6	71.6	71.6	88	67.8	0	1	0	0.00	29.918 
01:10	71.6	71.6	71.6	88	67.8	0	1	0	0.00	29.918 
01:15	71.5	71.5	71.5	88	67.7	0	1	0	0.00	29.918 
01:20	71.5	71.5	71.5	88	67.7	0	1	0	0.00	29.918 
01:25	71.5	71.5	71.5	88	67.7	0	0	---	0.00	29.918 
01:30	71.3	71.3	71.3	88	67.6	0	0	---	0.00	29.920 
01:35	71.3	71.3	71.3	88	67.6	0	1	0	0.00	29.920 
01:40	71.1	71.1	71.1	88	67.4	0	0	---	0.00	29.920 
01:45	71.1	71.1	71.1	88	67.4	0	1	0	0.00	29.917 
01:50	70.9	70.9	70.9	89	67.5	0	0	---	0.00	29.917 
01:55	70.9	70.9	70.9	89	67.5	0	0	---	0.00	29.917 
02:00	70.8	70.8	70.8	89	67.4	0	0	---	0.00	29.911 
02:05	70.8	70.8	70.8	89	67.4	0	0	---	0.00	29.911 
02:10	70.6	70.6	70.6	89	67.2	0	0	---	0.00	29.911 
02:15	70.4	70.4	70.4	89	67.0	0	0	---	0.00	29.911 
02:20	70.4	70.4	70.4	90	67.3	0	0	---	0.00	29.911 
02:25	70.3	70.3	70.3	90	67.2	0	0	---	0.00	29.911 
02:30	70.3	70.3	70.3	90	67.2	0	0	---	0.00	29.904 
02:35	70.3	70.3	70.3	90	67.2	0	1	0	0.00	29.904 
02:40	70.1	70.1	70.1	90	67.0	0	0	---	0.00	29.904 
02:45	70.1	70.1	70.1	91	67.3	0	1	0	0.00	29.901 
02:50	70.1	70.1	70.1	91	67.3	0	1	0	0.00	29.901 
02:55	70.1	70.1	70.1	91	67.3	0	1	0	0.00	29.901 
03:00	70.1	70.1	70.1	91	67.3	0	0	---	0.00	29.904 
03:05	70.1	70.1	70.1	91	67.3	0	1	0	0.00	29.904 
03:10	70.1	70.1	70.1	91	67.3	0	1	0	0.00	29.904 
03:15	69.9	69.9	69.9	91	67.1	0	0	---	0.00	29.906 
03:20	69.9	69.9	69.9	91	67.1	0	0	---	0.00	29.906 
03:25	69.8	69.8	69.8	91	67.0	0	2	0	0.00	29.906 
03:30	69.8	69.8	69.8	91	67.0	0	2	0	0.00	29.906 
03:35	69.8	69.8	69.8	91	67.0	0	0	---	0.00	29.906 
03:40	69.6	69.6	69.6	91	66.8	0	0	---	0.00	29.906 
03:45	69.6	69.6	69.6	91	66.8	0	0	---	0.00	29.903 
03:50	69.4	69.4	69.4	91	66.7	0	0	---	0.00	29.903 
03:55	69.3	69.3	69.3	91	66.6	0	0	---	0.00	29.903 
04:00	69.1	69.1	69.1	91	66.4	0	0	---	0.00	29.905 
04:05	68.9	68.9	68.9	91	66.2	0	0	---	0.00	29.905 
04:10	68.9	68.9	68.9	91	66.2	0	0	---	0.00	29.905 
04:15	68.8	68.8	68.8	91	66.1	0	0	---	0.00	29.910 
04:20	68.6	68.6	68.6	91	65.9	0	0	---	0.00	29.910 
04:25	68.6	68.6	68.6	92	66.2	0	0	---	0.00	29.910 
04:30	68.6	68.6	68.6	92	66.2	0	0	---	0.00	29.907 
04:35	68.4	68.4	68.4	92	66.0	0	0	---	0.00	29.907 
04:40	68.4	68.4	68.4	92	66.0	0	0	---	0.00	29.907 
04:45	68.3	68.3	68.3	92	65.9	0	0	---	0.00	29.907 
04:50	68.1	68.1	68.1	92	65.7	0	0	---	0.00	29.907 
04:55	67.9	67.9	67.9	92	65.5	0	0	---	0.00	29.907 
05:00	67.8	67.8	67.8	92	65.4	0	0	---	0.00	29.905 
05:05	67.6	67.6	67.6	92	65.2	0	0	---	0.00	29.905 
05:10	67.4	67.4	67.4	92	65.0	0	0	---	0.00	29.905 
05:15	67.3	67.3	67.3	92	64.9	0	0	---	0.00	29.905 
05:20	67.3	67.3	67.3	93	65.2	0	0	---	0.00	29.905 
05:25	66.9	66.9	66.9	93	64.8	0	0	---	0.00	29.905 
05:30	66.8	66.8	66.8	93	64.7	0	0	---	0.00	29.910 
05:35	66.4	66.4	66.4	93	64.3	0	0	---	0.00	29.910 
05:40	66.3	66.3	66.3	93	64.2	0	0	---	0.00	29.910 
05:45	66.1	66.1	66.1	93	64.0	0	0	---	0.00	29.917 
05:50	66.0	66.0	66.0	93	63.9	0	0	---	0.00	29.917 
05:55	66.0	66.0	66.0	93	63.9	0	0	---	0.00	29.917 
06:00	65.8	65.8	65.8	93	63.7	0	0	---	0.00	29.919 
06:05	65.6	65.6	65.6	93	63.5	0	0	---	0.00	29.919 
06:10	65.5	65.5	65.5	93	63.4	0	0	---	0.00	29.919 
06:15	65.3	65.3	65.3	93	63.2	0	0	---	0.00	29.920 
06:20	65.2	65.2	65.2	93	63.1	0	0	---	0.00	29.920 
06:25	65.0	65.0	65.0	93	62.9	0	0	---	0.00	29.920 
06:30	64.8	64.8	64.8	93	62.7	0	0	---	0.00	29.923 
06:35	64.7	64.7	64.7	93	62.6	0	0	---	0.00	29.923 
06:40	64.5	64.5	64.5	93	62.4	0	0	---	0.00	29.923 
06:45	64.3	64.3	64.3	93	62.2	0	0	---	0.00	29.928 
06:50	64.3	64.3	64.3	93	62.2	0	0	---	0.00	29.928 
06:55	64.5	64.5	64.5	93	62.4	0	0	---	0.00	29.928 
07:00	64.5	64.5	64.5	94	62.7	0	0	---	0.00	29.930 
07:05	64.5	64.5	64.5	94	62.7	0	0	---	0.00	29.930 
07:10	64.5	64.5	64.5	94	62.7	0	0	---	0.00	29.930 
07:15	64.5	64.5	64.5	94	62.7	0	0	---	0.00	29.935 
07:20	64.5	64.5	64.5	94	62.7	0	0	---	0.00	29.935 
07:25	64.5	64.5	64.5	94	62.7	0	0	---	0.00	29.935 
07:30	64.5	64.5	64.5	94	62.7	0	0	---	0.00	29.938 
07:35	64.7	64.7	64.7	94	62.9	0	0	---	0.00	29.938 
07:40	65.0	65.0	65.0	94	63.2	0	0	---	0.00	29.938 
07:45	65.2	65.2	65.2	94	63.4	0	0	---	0.00	29.938 
07:50	65.3	65.3	65.3	94	63.5	0	0	---	0.00	29.938 
07:55	65.5	65.5	65.5	95	64.0	0	0	---	0.00	29.938 
08:00	65.8	65.8	65.8	95	64.3	0	0	---	0.00	29.945 
08:05	66.1	66.1	66.1	95	64.6	0	0	---	0.00	29.945 
08:10	66.8	66.8	66.8	95	65.3	0	0	---	0.00	29.945 
08:15	67.4	67.4	67.4	95	65.9	0	0	---	0.00	29.950 
08:20	68.1	68.1	68.1	95	66.6	0	0	---	0.00	29.950 
08:25	68.9	68.9	68.9	95	67.4	0	0	---	0.00	29.950 
08:30	69.6	69.6	69.6	95	68.1	0	0	---	0.00	29.946 
08:35	70.3	70.3	70.3	94	68.5	0	0	---	0.00	29.946 
08:40	70.8	70.8	70.8	93	68.7	0	0	---	0.00	29.946 
08:45	71.6	71.6	71.6	92	69.1	0	0	---	0.00	29.945 
08:50	72.3	72.3	72.3	90	69.2	0	1	0	0.00	29.945 
08:55	72.7	72.7	72.7	88	68.9	0	1	0	0.00	29.945 
09:00	72.3	72.3	72.3	87	68.2	0	1	0	0.00	29.947 
09:05	72.3	72.3	72.3	87	68.2	0	0	---	0.00	29.947 
09:10	72.7	72.7	72.7	86	68.3	0	1	0	0.00	29.947 
09:15	73.0	73.0	73.0	84	67.9	0	1	0	0.00	29.944 
09:20	73.3	73.3	73.3	83	67.8	0	1	0	0.00	29.944 
09:25	73.0	73.0	73.0	81	66.8	1	3	0	0.00	29.944 
09:30	73.2	73.2	73.2	82	67.4	0	0	---	0.00	29.945 
09:35	73.2	73.2	73.2	78	65.9	0	1	0	0.00	29.945 
09:40	73.5	73.5	73.5	81	67.3	1	3	0	0.00	29.945 
09:45	73.9	73.9	73.9	81	67.7	1	2	0	0.00	29.935 
09:50	73.9	73.9	73.9	81	67.7	2	4	22	0.00	29.935 
09:55	73.9	73.9	73.9	81	67.7	0	3	90	0.00	29.935 
10:00	73.9	73.9	73.9	82	68.0	1	3	90	0.00	29.937 
10:05	73.5	73.5	73.5	82	67.7	1	3	90	0.00	29.937 
10:10	73.7	73.7	73.7	82	67.9	0	3	90	0.00	29.937 
10:15	74.4	74.4	74.4	81	68.2	0	3	90	0.00	29.937 
10:20	74.9	74.9	74.9	79	67.9	1	4	90	0.00	29.937 
10:25	75.1	75.1	76.0	78	67.8	1	3	90	0.00	29.937 
10:30	75.6	75.6	76.7	77	67.9	1	3	90	0.00	29.940 
10:35	76.1	76.1	77.4	76	68.0	0	2	90	0.00	29.940 
10:40	76.1	76.1	77.5	75	67.6	0	2	90	0.00	29.940 
10:45	76.3	76.3	78.0	69	65.4	1	2	90	0.00	29.943 
10:50	77.0	77.0	78.8	67	65.2	0	2	90	0.00	29.943 
10:55	76.8	76.8	78.6	67	65.0	0	2	90	0.00	29.943 
11:00	77.0	77.0	78.8	65	64.3	0	1	90	0.00	29.939 
11:05	77.9	77.9	79.7	63	64.3	0	1	90	0.00	29.939 
11:10	78.6	78.6	80.4	62	64.5	0	2	90	0.00	29.939 
11:15	78.6	78.6	80.1	58	62.6	2	4	90	0.00	29.933 
11:20	78.6	78.6	80.2	59	63.1	1	4	90	0.00	29.933 
11:25	78.6	78.6	80.1	58	62.6	2	4	90	0.00	29.933 
11:30	79.0	79.0	80.7	60	63.9	0	2	90	0.00	29.931 
11:35	79.6	79.6	81.3	59	64.0	0	2	90	0.00	29.931 
11:40	80.1	80.1	81.7	58	64.0	0	2	90	0.00	29.931 
11:45	80.3	80.3	81.6	55	62.6	1	3	90	0.00	29.931 
11:50	80.7	80.7	82.3	57	64.0	1	3	90	0.00	29.931 
11:55	80.5	80.5	82.2	58	64.3	1	3	90	0.00	29.931 
12:00	80.5	80.5	82.1	57	63.8	0	1	90	0.00	29.929 
12:05	80.5	80.5	81.9	56	63.3	0	3	90	0.00	29.929 
12:10	80.3	80.3	81.9	58	64.2	1	4	90	0.00	29.929 
12:15	80.3	80.3	81.8	57	63.7	1	4	90	0.00	29.925 
12:20	80.7	80.7	82.3	57	64.0	0	3	90	0.00	29.925 
12:25	81.4	81.4	82.7	54	63.1	1	4	90	0.00	29.925 
12:30	82.0	82.0	83.4	54	63.7	0	2	90	0.00	29.918 
12:35	82.2	82.2	83.6	54	63.9	1	2	90	0.00	29.918 
12:40	82.4	82.4	84.1	55	64.6	1	5	90	0.00	29.918 
12:45	81.6	81.6	83.1	55	63.8	1	5	90	0.00	29.915 
12:50	81.4	81.4	83.3	58	65.2	0	2	90	0.00	29.915 
12:55	81.8	81.8	83.3	55	64.0	1	3	90	0.00	29.915 
13:00	82.4	82.4	84.4	57	65.6	1	3	90	0.00	29.911 
13:05	82.6	82.6	84.5	56	65.3	1	3	90	0.00	29.911 
13:10	82.6	82.6	84.1	54	64.2	1	4	90	0.00	29.911 
13:15	82.6	82.6	84.5	56	65.3	0	2	90	0.00	29.909 
13:20	83.0	83.0	84.1	51	63.0	1	3	90	0.00	29.909 
13:25	83.2	83.2	84.5	52	63.7	1	3	90	0.00	29.909 
13:30	82.8	82.8	84.2	53	63.9	1	4	90	0.00	29.904 
13:35	82.8	82.8	84.6	55	65.0	1	3	90	0.00	29.904 
13:40	83.2	83.2	84.5	52	63.7	1	3	90	0.00	29.904 
13:45	83.2	83.2	84.5	52	63.7	1	3	90	0.00	29.900 
13:50	83.2	83.2	84.3	51	63.2	1	3	90	0.00	29.900 
13:55	83.2	83.2	84.1	50	62.6	1	5	90	0.00	29.900 
14:00	82.4	82.4	83.9	54	64.1	1	4	90	0.00	29.901 
14:05	81.8	81.8	83.0	53	63.0	0	2	90	0.00	29.901 
14:10	81.4	81.4	83.0	56	64.2	0	1	90	0.00	29.901 
14:15	81.8	81.8	83.3	55	64.0	0	2	90	0.00	29.897 
14:20	82.2	82.2	83.6	54	63.9	0	1	90	0.00	29.897 
14:25	82.4	82.4	84.1	55	64.6	1	4	90	0.00	29.897 
14:30	82.2	82.2	83.6	54	63.9	1	4	90	0.00	29.898 
14:35	82.2	82.2	83.3	52	62.8	1	4	90	0.00	29.898 
14:40	82.8	82.8	83.8	51	62.8	1	3	90	0.00	29.898 
14:45	83.4	83.4	84.6	51	63.3	1	4	90	0.00	29.895 
14:50	84.0	84.0	85.3	51	63.9	0	2	90	0.00	29.895 
14:55	84.3	84.3	85.1	48	62.4	1	3	90	0.00	29.895 
15:00	84.5	84.5	85.6	49	63.2	0	1	90	0.00	29.891 
15:05	84.9	84.9	86.3	50	64.2	0	3	90	0.00	29.891 
15:10	84.7	84.7	85.8	49	63.4	1	3	90	0.00	29.891 
15:15	84.5	84.5	85.8	50	63.8	1	5	90	0.00	29.892 
15:20	84.0	84.0	85.1	50	63.3	1	4	90	0.00	29.892 
15:25	83.4	83.4	84.6	51	63.3	0	2	90	0.00	29.892 
15:30	83.0	83.0	84.1	51	63.0	0	1	90	0.00	29.894 
15:35	82.6	82.6	83.6	51	62.6	0	3	292	0.00	29.894 
15:40	82.6	82.6	84.0	53	63.7	1	4	45	0.00	29.894 
15:45	83.2	83.2	84.5	52	63.7	0	3	45	0.00	29.894 
15:50	83.6	83.6	84.8	51	63.5	0	3	292	0.00	29.894 
15:55	84.0	84.0	85.1	50	63.3	1	4	90	0.00	29.894 
16:00	83.8	83.8	85.1	51	63.7	1	4	90	0.00	29.890 
16:05	83.4	83.4	84.8	52	63.9	0	1	90	0.00	29.890 
16:10	83.4	83.4	84.6	51	63.3	1	5	90	0.00	29.890 
16:15	82.8	82.8	84.2	53	63.9	2	5	90	0.00	29.889 
16:20	82.4	82.4	83.5	52	63.0	0	2	90	0.00	29.889 
16:25	82.4	82.4	83.5	52	63.0	1	3	158	0.00	29.889 
16:30	82.2	82.2	83.1	51	62.2	1	2	135	0.00	29.892 
16:35	82.2	82.2	83.3	52	62.8	0	1	135	0.00	29.892 
16:40	82.4	82.4	83.7	53	63.5	0	2	135	0.00	29.892 
16:45	82.4	82.4	83.9	54	64.1	1	4	112	0.00	29.889 
16:50	82.4	82.4	83.7	53	63.5	0	1	112	0.00	29.889 
16:55	82.4	82.4	83.7	53	63.5	1	3	112	0.00	29.889 
17:00	82.8	82.8	84.0	52	63.3	1	4	112	0.00	29.887 
17:05	83.0	83.0	84.1	51	63.0	0	2	112	0.00	29.887 
17:10	83.4	83.4	84.6	51	63.3	0	1	112	0.00	29.887 
17:15	83.2	83.2	84.3	51	63.2	1	3	270	0.00	29.887 
17:20	82.6	82.6	83.8	52	63.2	0	2	270	0.00	29.887 
17:25	82.0	82.0	83.4	54	63.7	1	4	68	0.00	29.887 
17:30	81.6	81.6	82.8	53	62.8	0	1	68	0.00	29.886 
17:35	81.4	81.4	82.7	54	63.1	0	2	68	0.00	29.886 
17:40	81.2	81.2	82.5	54	62.9	0	2	68	0.00	29.886 
17:45	81.2	81.2	82.5	54	62.9	0	1	68	0.00	29.888 
17:50	81.2	81.2	82.5	54	62.9	0	2	68	0.00	29.888 
17:55	81.1	81.1	82.3	54	62.9	0	2	90	0.00	29.888 
18:00	81.1	81.1	82.2	53	62.3	0	1	90	0.00	29.888 
18:05	81.1	81.1	82.2	53	62.3	0	2	90	0.00	29.888 
18:10	81.1	81.1	82.3	54	62.9	0	1	90	0.00	29.888 
18:15	81.1	81.1	82.3	54	62.9	0	1	90	0.00	29.886 
18:20	81.1	81.1	82.3	54	62.9	0	2	90	0.00	29.886 
18:25	81.1	81.1	82.3	54	62.9	0	1	90	0.00	29.886 
18:30	81.1	81.1	82.3	54	62.9	0	2	90	0.00	29.887 
18:35	81.1	81.1	82.3	54	62.9	0	1	90	0.00	29.887 
18:40	81.2	81.2	82.5	54	62.9	0	2	90	0.00	29.887 
18:45	81.1	81.1	82.2	53	62.3	0	2	90	0.00	29.881 
18:50	81.1	81.1	82.2	53	62.3	0	1	90	0.00	29.881 
18:55	81.1	81.1	82.3	54	62.9	0	1	90	0.00	29.881 
19:00	80.9	80.9	82.1	54	62.7	0	2	90	0.00	29.878 
19:05	80.7	80.7	82.0	55	63.0	0	1	90	0.00	29.878 
19:10	80.5	80.5	81.9	56	63.3	0	1	90	0.00	29.878 
19:15	80.3	80.3	81.8	57	63.7	0	1	90	0.00	29.878 
19:20	80.3	80.3	81.9	58	64.2	0	1	90	0.00	29.878 
19:25	80.1	80.1	81.7	58	64.0	0	1	90	0.00	29.878 
19:30	79.9	79.9	81.5	58	63.8	0	1	90	0.00	29.878 
19:35	79.8	79.8	81.5	59	64.2	0	1	90	0.00	29.878 
19:40	79.6	79.6	81.3	59	64.0	0	1	90	0.00	29.878 
19:45	79.4	79.4	81.0	59	63.8	0	1	90	0.00	29.882 
19:50	79.2	79.2	80.9	60	64.1	0	1	90	0.00	29.882 
19:55	78.8	78.8	80.5	60	63.7	0	1	90	0.00	29.882 
20:00	78.6	78.6	80.3	60	63.5	0	1	90	0.00	29.880 
20:05	78.5	78.5	80.2	61	63.9	0	0	---	0.00	29.880 
20:10	78.3	78.3	80.0	60	63.2	0	1	90	0.00	29.880 
20:15	78.1	78.1	79.8	61	63.5	0	0	---	0.00	29.877 
20:20	77.9	77.9	79.6	62	63.8	0	0	---	0.00	29.877 
20:25	77.7	77.7	79.4	62	63.6	0	0	---	0.00	29.877 
20:30	77.7	77.7	79.4	62	63.6	0	1	90	0.00	29.873 
20:35	77.6	77.6	79.4	63	64.0	0	0	---	0.00	29.873 
20:40	77.4	77.4	79.2	65	64.7	0	3	90	0.00	29.873 
20:45	76.8	76.8	78.5	73	67.5	2	6	112	0.00	29.884 
20:50	76.3	76.3	77.7	75	67.8	1	4	90	0.00	29.884 
20:55	75.8	75.8	77.0	77	68.1	1	3	90	0.00	29.884 
21:00	75.3	75.3	76.2	78	68.0	1	3	68	0.00	29.885 
21:05	75.1	75.1	75.8	79	68.1	0	2	68	0.00	29.885 
21:10	74.7	74.7	74.7	79	67.7	0	2	68	0.00	29.885 
21:15	74.6	74.6	74.6	80	68.0	1	3	90	0.00	29.883 
21:20	74.4	74.4	74.4	80	67.8	1	4	90	0.00	29.883 
21:25	74.0	74.0	74.0	81	67.8	1	3	68	0.00	29.883 
21:30	73.9	73.9	73.9	81	67.7	2	5	90	0.00	29.893 
21:35	73.7	73.7	73.7	81	67.5	1	5	90	0.00	29.893 
21:40	73.5	73.5	73.5	81	67.3	1	4	68	0.00	29.893 
21:45	73.3	73.3	73.3	82	67.5	1	5	68	0.00	29.899 
21:50	73.2	73.2	73.2	82	67.4	1	3	68	0.00	29.899 
21:55	73.0	73.0	73.0	82	67.2	0	2	90	0.00	29.899 
22:00	72.7	72.7	72.7	83	67.2	1	3	90	0.00	29.902 
22:05	72.3	72.3	72.3	83	66.8	1	4	90	0.00	29.902 
22:10	72.1	72.1	72.1	83	66.6	1	4	90	0.00	29.902 
22:15	72.0	72.0	72.0	83	66.5	1	4	90	0.00	29.900 
22:20	71.8	71.8	71.8	83	66.3	1	4	90	0.00	29.900 
22:25	71.6	71.6	71.6	83	66.2	1	5	90	0.00	29.900 
22:30	71.5	71.5	71.5	83	66.1	1	5	90	0.00	29.900 
22:35	71.3	71.3	71.3	83	65.9	0	3	90	0.00	29.900 
22:40	71.1	71.1	71.1	84	66.0	1	3	90	0.00	29.900 
22:45	70.9	70.9	70.9	84	65.8	1	4	90	0.00	29.901 
22:50	70.9	70.9	70.9	84	65.8	0	2	90	0.00	29.901 
22:55	70.8	70.8	70.8	84	65.7	0	2	90	0.00	29.901 
23:00	70.6	70.6	70.6	84	65.5	0	2	90	0.00	29.902 
23:05	70.4	70.4	70.4	85	65.7	0	1	90	0.00	29.902 
23:10	70.3	70.3	70.3	85	65.6	0	3	90	0.00	29.902 
23:15	70.1	70.1	70.1	86	65.7	0	2	90	0.00	29.896 
23:20	69.9	69.9	69.9	86	65.5	0	2	90	0.00	29.896 
23:25	69.8	69.8	69.8	86	65.4	0	0	---	0.00	29.896 
23:30	69.6	69.6	69.6	86	65.2	0	1	90	0.00	29.897 
23:35	69.4	69.4	69.4	86	65.0	0	0	---	0.00	29.897 
23:40	69.4	69.4	69.4	87	65.4	0	3	90	0.00	29.897 
23:45	69.3	69.3	69.3	87	65.3	1	3	90	0.00	29.898 
23:50	69.3	69.3	69.3	87	65.3	0	2	90	0.00	29.898 
23:55	69.1	69.1	69.1	88	65.4	1	3	90	0.00	29.898 

CoCoRaHS
IN-AL-39
A2 Web Hosting
Creative Commons License
GoDaddy
search engine by freefind advanced

loaded 2018-11-15 03:26:40 • last modified 2010-11-18 10:43:29
Privacy PolicyDisclaimer
• wx.awcolley.com is powered by PmWiki v.2002016 •
• all content (unless otherwise noted) © 2018 A W Colley